createdAt,value
2018-09-17T00:00:28.480Z,2.20
2018-09-17T00:02:55.744Z,2.13
2018-09-17T00:05:22.927Z,2.80
2018-09-17T00:07:50.118Z,2.50
2018-09-17T00:10:17.326Z,2.70
2018-09-17T00:12:44.538Z,2.50
2018-09-17T00:15:11.893Z,2.60
2018-09-17T00:17:39.059Z,2.83
2018-09-17T00:20:06.264Z,2.20
2018-09-17T00:22:33.459Z,2.73
2018-09-17T00:25:00.696Z,2.90
2018-09-17T00:27:27.969Z,2.47
2018-09-17T00:29:55.136Z,2.40
2018-09-17T00:32:22.573Z,2.60
2018-09-17T00:34:49.729Z,2.70
2018-09-17T00:37:17.180Z,2.80
2018-09-17T00:39:45.375Z,2.57
2018-09-17T00:42:12.687Z,2.93
2018-09-17T00:44:39.862Z,3.30
2018-09-17T00:47:07.123Z,2.70
2018-09-17T00:49:34.297Z,2.70
2018-09-17T00:52:01.545Z,3.20
2018-09-17T00:54:28.787Z,2.37
2018-09-17T00:56:55.960Z,3.00
2018-09-17T00:59:23.215Z,2.83
2018-09-17T01:01:50.429Z,2.40
2018-09-17T01:04:17.894Z,2.97
2018-09-17T01:06:45.078Z,2.77
2018-09-17T01:09:16.622Z,2.73
2018-09-17T01:11:43.817Z,2.93
2018-09-17T01:14:11.204Z,2.90
2018-09-17T01:16:38.381Z,3.30
2018-09-17T01:19:05.820Z,2.87
2018-09-17T01:21:33.052Z,2.97
2018-09-17T01:24:00.246Z,2.80
2018-09-17T01:26:27.744Z,3.13
2018-09-17T01:28:54.915Z,3.00
2018-09-17T01:31:22.140Z,3.47
2018-09-17T01:33:49.305Z,2.73
2018-09-17T01:36:16.524Z,3.30
2018-09-17T01:38:43.918Z,3.50
2018-09-17T01:41:11.272Z,3.03
2018-09-17T01:43:38.492Z,3.10
2018-09-17T01:46:05.671Z,3.07
2018-09-17T01:48:32.840Z,3.00
2018-09-17T01:51:00.017Z,2.80
2018-09-17T01:53:27.218Z,2.83
2018-09-17T01:55:54.392Z,2.67
2018-09-17T01:58:21.613Z,3.03
2018-09-17T02:00:48.864Z,2.97
2018-09-17T02:03:16.059Z,2.73
2018-09-17T02:05:43.254Z,3.10
2018-09-17T02:08:10.504Z,3.03
2018-09-17T02:10:37.794Z,3.20
2018-09-17T02:13:05.004Z,3.07
2018-09-17T02:15:32.210Z,3.57
2018-09-17T02:17:59.378Z,3.00
2018-09-17T02:20:26.605Z,3.00
2018-09-17T02:22:53.804Z,2.70
2018-09-17T02:25:21.023Z,2.67
2018-09-17T02:27:48.251Z,2.57
2018-09-17T02:30:15.490Z,2.30
2018-09-17T02:32:42.675Z,2.60
2018-09-17T02:35:10.154Z,2.80
2018-09-17T02:37:37.331Z,2.57
2018-09-17T02:40:07.395Z,2.30
2018-09-17T02:42:34.763Z,3.10
2018-09-17T02:45:01.950Z,2.50
2018-09-17T02:47:29.779Z,2.43
2018-09-17T02:49:56.947Z,2.43
2018-09-17T02:52:24.127Z,2.20
2018-09-17T02:54:51.317Z,2.43
2018-09-17T02:57:18.563Z,2.53
2018-09-17T02:59:45.724Z,2.50
2018-09-17T03:02:12.972Z,2.83
2018-09-17T03:04:40.198Z,2.73
2018-09-17T03:07:07.481Z,2.33
2018-09-17T03:09:34.718Z,2.50
2018-09-17T03:12:02.025Z,2.83
2018-09-17T03:14:30.124Z,3.47
2018-09-17T03:17:02.997Z,2.60
2018-09-17T03:19:30.187Z,2.60
2018-09-17T03:21:57.387Z,2.47
2018-09-17T03:24:24.612Z,3.27
2018-09-17T03:26:51.770Z,2.43
2018-09-17T03:29:19.007Z,2.90
2018-09-17T03:31:46.228Z,2.73
2018-09-17T03:34:13.427Z,3.03
2018-09-17T03:36:40.634Z,3.33
2018-09-17T03:39:07.812Z,3.13
2018-09-17T03:41:35.013Z,2.73
2018-09-17T03:44:02.432Z,2.73
2018-09-17T03:46:29.785Z,2.80
2018-09-17T03:48:56.950Z,2.97
2018-09-17T03:51:24.289Z,3.23
2018-09-17T03:53:51.701Z,3.43
2018-09-17T03:56:19.092Z,3.27
2018-09-17T03:58:46.872Z,3.00
2018-09-17T04:01:14.042Z,3.40
2018-09-17T04:03:41.489Z,3.40
2018-09-17T04:06:08.671Z,3.90
2018-09-17T04:08:35.887Z,4.00
2018-09-17T04:11:03.235Z,3.53
2018-09-17T04:13:30.464Z,3.80
2018-09-17T04:15:57.848Z,3.33
2018-09-17T04:18:25.098Z,4.50
2018-09-17T04:20:52.326Z,3.90
2018-09-17T04:23:36.955Z,4.23
2018-09-17T04:26:05.502Z,4.30
2018-09-17T04:28:33.077Z,4.30
2018-09-17T04:31:00.244Z,4.53
2018-09-17T04:33:28.926Z,5.40
2018-09-17T04:35:56.151Z,4.80
2018-09-17T04:38:23.328Z,6.47
2018-09-17T04:40:50.575Z,6.60
2018-09-17T04:43:17.769Z,5.70
2018-09-17T04:45:44.985Z,5.10
2018-09-17T04:48:12.300Z,4.97
2018-09-17T04:50:39.530Z,4.73
2018-09-17T04:53:06.908Z,4.43
2018-09-17T04:55:34.121Z,4.80
2018-09-17T04:58:01.326Z,5.83
2018-09-17T05:00:28.531Z,5.13
2018-09-17T05:02:55.729Z,5.20
2018-09-17T05:05:23.082Z,6.00
2018-09-17T05:07:50.287Z,6.30
2018-09-17T05:10:17.462Z,5.60
2018-09-17T05:12:44.734Z,4.87
2018-09-17T05:15:11.871Z,5.00
2018-09-17T05:17:39.121Z,5.03
2018-09-17T05:20:06.607Z,4.87
2018-09-17T05:22:34.004Z,5.00
2018-09-17T05:25:01.167Z,5.10
2018-09-17T05:27:28.452Z,4.37
2018-09-17T05:29:55.751Z,5.10
2018-09-17T05:32:23.069Z,5.27
2018-09-17T05:34:50.370Z,4.17
2018-09-17T05:37:17.809Z,4.43
2018-09-17T05:39:45.025Z,4.90
2018-09-17T05:42:12.254Z,4.30
2018-09-17T05:44:39.863Z,4.50
2018-09-17T05:47:07.587Z,4.30
2018-09-17T05:49:34.932Z,4.33
2018-09-17T05:52:02.540Z,4.67
2018-09-17T05:54:30.017Z,4.67
2018-09-17T05:56:57.478Z,5.00
2018-09-17T05:59:24.704Z,4.40
2018-09-17T06:01:52.065Z,4.97
2018-09-17T06:04:19.306Z,4.80
2018-09-17T06:06:46.739Z,4.80
2018-09-17T06:09:14.177Z,5.13
2018-09-17T06:11:42.613Z,5.10
2018-09-17T06:14:09.874Z,4.83
2018-09-17T06:16:37.161Z,6.07
2018-09-17T06:19:05.944Z,6.17
2018-09-17T06:21:33.542Z,6.23
2018-09-17T06:24:01.148Z,5.53
2018-09-17T06:26:28.453Z,6.40
2018-09-17T06:28:55.722Z,5.40
2018-09-17T06:31:22.946Z,6.10
2018-09-17T06:33:50.170Z,4.90
2018-09-17T06:36:17.401Z,5.50
2018-09-17T06:38:44.694Z,5.53
2018-09-17T06:41:11.922Z,6.10
2018-09-17T06:43:39.128Z,5.90
2018-09-17T06:46:06.427Z,6.60
2018-09-17T06:48:34.521Z,5.83
2018-09-17T06:51:03.459Z,6.77
2018-09-17T06:53:30.836Z,6.33
2018-09-17T06:55:58.033Z,7.20
2018-09-17T06:58:25.854Z,7.17
2018-09-17T07:00:53.210Z,6.20
2018-09-17T07:03:20.830Z,7.23
2018-09-17T07:05:50.821Z,7.70
2018-09-17T07:08:18.070Z,7.40
2018-09-17T07:10:45.310Z,6.37
2018-09-17T07:13:14.094Z,7.70
2018-09-17T07:15:41.281Z,7.13
2018-09-17T07:18:08.529Z,8.30
2018-09-17T07:20:35.853Z,8.87
2018-09-17T07:23:03.212Z,8.60
2018-09-17T07:25:30.442Z,9.10
2018-09-17T07:27:57.712Z,9.50
2018-09-17T07:30:24.952Z,9.63
2018-09-17T07:32:52.273Z,9.47
2018-09-17T07:35:19.790Z,8.97
2018-09-17T07:37:47.030Z,8.80
2018-09-17T07:40:14.228Z,9.37
2018-09-17T07:42:41.468Z,8.53
2018-09-17T07:45:08.780Z,9.00
2018-09-17T07:47:36.189Z,8.87
2018-09-17T07:51:27.708Z,8.33
2018-09-17T07:53:54.933Z,9.90
2018-09-17T07:56:22.226Z,9.37
2018-09-17T07:58:49.450Z,8.37
2018-09-17T08:01:16.681Z,8.90
2018-09-17T08:03:44.142Z,8.50
2018-09-17T08:06:11.611Z,8.90
2018-09-17T08:08:38.885Z,8.90
2018-09-17T08:11:06.187Z,9.37
2018-09-17T08:13:33.413Z,8.80
2018-09-17T08:16:00.641Z,9.30
2018-09-17T08:18:27.893Z,8.87
2018-09-17T08:20:55.129Z,7.93
2018-09-17T08:23:22.325Z,8.80
2018-09-17T08:25:50.950Z,8.40
2018-09-17T08:28:18.364Z,8.50
2018-09-17T08:30:45.880Z,10.30
2018-09-17T08:33:13.170Z,11.93
2018-09-17T08:35:40.440Z,11.20
2018-09-17T08:38:07.714Z,9.67
2018-09-17T08:40:34.901Z,11.40
2018-09-17T08:43:02.126Z,9.93
2018-09-17T08:45:29.475Z,9.70
2018-09-17T08:47:56.738Z,13.00
2018-09-17T08:50:23.962Z,9.93
2018-09-17T09:00:01.774Z,10.10
2018-09-17T09:02:34.213Z,11.60
2018-09-17T09:07:12.460Z,11.33
2018-09-17T09:09:39.742Z,11.13
2018-09-17T09:12:12.376Z,11.90
2018-09-17T09:14:40.715Z,11.00
2018-09-17T09:17:08.916Z,11.87
2018-09-17T09:19:38.267Z,11.97
2018-09-17T09:22:05.493Z,11.63
2018-09-17T09:24:32.761Z,13.03
2018-09-17T09:27:00.037Z,13.83
2018-09-17T09:29:27.344Z,14.03
2018-09-17T09:31:54.703Z,12.23
2018-09-17T09:34:21.909Z,13.13
2018-09-17T09:36:49.262Z,11.50
2018-09-17T09:39:16.650Z,13.17
2018-09-17T09:41:43.869Z,11.83
2018-09-17T09:44:11.113Z,11.00
2018-09-17T09:46:38.674Z,10.97
2018-09-17T09:49:06.122Z,10.67
2018-09-17T09:51:33.397Z,10.37
2018-09-17T09:54:00.733Z,11.07
2018-09-17T09:56:27.938Z,10.57
2018-09-17T09:58:55.350Z,9.40
2018-09-17T10:01:26.049Z,10.57
2018-09-17T10:03:58.739Z,8.90
2018-09-17T10:06:25.991Z,7.97
2018-09-17T10:08:58.643Z,10.03
2018-09-17T10:11:31.259Z,8.10
2018-09-17T10:14:03.977Z,5.63
2018-09-17T10:16:31.163Z,6.00
2018-09-17T10:19:29.469Z,6.27
2018-09-17T10:21:57.009Z,6.50
2018-09-17T10:24:24.269Z,5.47
2018-09-17T10:26:51.660Z,5.37
2018-09-17T10:29:19.029Z,5.43
2018-09-17T10:31:46.530Z,5.43
2018-09-17T10:34:13.830Z,6.23
2018-09-17T10:36:41.525Z,5.03
2018-09-17T10:39:10.633Z,6.10
2018-09-17T10:41:37.848Z,5.90
2018-09-17T10:44:06.958Z,5.00
2018-09-17T10:46:34.562Z,6.60
2018-09-17T10:49:02.266Z,5.67
2018-09-17T10:51:29.526Z,5.60
2018-09-17T10:53:56.809Z,5.33
2018-09-17T10:56:24.066Z,5.17
2018-09-17T10:58:51.430Z,4.50
2018-09-17T11:01:18.837Z,5.30
2018-09-17T11:03:46.211Z,5.10
2018-09-17T11:06:13.450Z,4.77
2018-09-17T11:08:40.691Z,4.67
2018-09-17T11:11:07.968Z,5.30
2018-09-17T11:13:35.390Z,5.83
2018-09-17T11:16:02.635Z,4.80
2018-09-17T11:18:29.814Z,4.50
2018-09-17T11:20:57.051Z,4.73
2018-09-17T11:23:24.499Z,4.73
2018-09-17T11:25:51.801Z,4.50
2018-09-17T11:28:19.004Z,4.50
2018-09-17T11:30:46.221Z,4.23
2018-09-17T11:33:13.619Z,4.27
2018-09-17T11:35:40.851Z,4.10
2018-09-17T11:38:08.225Z,4.10
2018-09-17T11:40:35.533Z,5.07
2018-09-17T11:43:02.758Z,6.20
2018-09-17T11:45:29.986Z,4.97
2018-09-17T11:47:57.196Z,4.33
2018-09-17T11:50:24.441Z,4.40
2018-09-17T11:52:51.863Z,4.17
2018-09-17T11:55:19.057Z,4.07
2018-09-17T11:57:46.281Z,4.40
2018-09-17T12:00:17.819Z,3.83
2018-09-17T12:02:50.598Z,3.67
2018-09-17T12:07:24.577Z,3.27
2018-09-17T12:09:51.793Z,3.70
2018-09-17T12:12:19.088Z,3.40
2018-09-17T12:14:46.369Z,3.80
2018-09-17T12:17:13.643Z,4.47
2018-09-17T12:19:40.884Z,3.40
2018-09-17T12:22:08.318Z,3.00
2018-09-17T12:24:35.587Z,3.43
2018-09-17T12:27:02.868Z,3.90
2018-09-17T12:29:30.150Z,3.63
2018-09-17T12:31:57.462Z,3.70
2018-09-17T12:34:24.710Z,3.40
2018-09-17T12:36:51.954Z,3.63
2018-09-17T12:39:19.147Z,3.53
2018-09-17T12:41:46.441Z,3.70
2018-09-17T12:44:13.772Z,3.67
2018-09-17T12:46:41.019Z,3.47
2018-09-17T12:49:08.193Z,3.00
2018-09-17T12:51:35.401Z,3.57
2018-09-17T12:54:02.668Z,4.90
2018-09-17T12:56:29.925Z,4.50
2018-09-17T12:58:57.179Z,3.43
2018-09-17T13:01:24.363Z,3.13
2018-09-17T13:03:51.909Z,3.60
2018-09-17T13:06:19.152Z,3.07
2018-09-17T13:08:46.458Z,3.20
2018-09-17T13:11:13.700Z,3.40
2018-09-17T13:13:40.934Z,3.30
2018-09-17T13:16:08.209Z,3.30
2018-09-17T13:18:35.459Z,3.27
2018-09-17T13:21:02.759Z,3.60
2018-09-17T13:23:29.960Z,2.83
2018-09-17T13:25:57.171Z,3.37
2018-09-17T13:28:24.368Z,3.07
2018-09-17T13:30:51.751Z,3.30
2018-09-17T13:33:19.197Z,3.60
2018-09-17T13:35:46.488Z,3.67
2018-09-17T13:38:13.659Z,3.03
2018-09-17T13:40:40.925Z,3.10
2018-09-17T13:43:08.187Z,3.33
2018-09-17T13:45:35.560Z,3.10
2018-09-17T13:48:02.875Z,3.47
2018-09-17T13:50:30.082Z,2.90
2018-09-17T13:52:57.414Z,3.90
2018-09-17T13:55:24.798Z,3.40
2018-09-17T13:57:52.150Z,4.20
2018-09-17T14:00:19.846Z,3.37
2018-09-17T14:02:47.001Z,3.30
2018-09-17T14:05:14.258Z,3.00
2018-09-17T14:07:41.463Z,3.23
2018-09-17T14:10:08.904Z,2.90
2018-09-17T14:12:36.176Z,2.90
2018-09-17T14:15:03.451Z,2.47
2018-09-17T14:17:30.739Z,2.40
2018-09-17T14:19:58.049Z,2.80
2018-09-17T14:22:25.407Z,3.03
2018-09-17T14:24:52.668Z,2.70
2018-09-17T14:27:19.953Z,2.93
2018-09-17T14:29:47.189Z,2.70
2018-09-17T14:32:19.803Z,3.20
2018-09-17T14:34:47.098Z,2.60
2018-09-17T14:37:14.389Z,3.00
2018-09-17T14:39:41.642Z,2.80
2018-09-17T14:42:08.930Z,3.20
2018-09-17T14:44:38.348Z,3.50
2018-09-17T14:47:05.616Z,3.20
2018-09-17T14:49:33.048Z,3.40
2018-09-17T14:52:00.395Z,3.30
2018-09-17T14:54:27.743Z,3.03
2018-09-17T14:56:55.574Z,2.73
2018-09-17T14:59:22.801Z,3.50
2018-09-17T15:01:50.179Z,3.00
2018-09-17T15:04:17.479Z,2.73
2018-09-17T15:06:44.680Z,3.10
2018-09-17T15:09:12.163Z,2.87
2018-09-17T15:11:39.501Z,3.10
2018-09-17T15:14:06.967Z,2.93
2018-09-17T15:16:34.147Z,3.90
2018-09-17T15:19:01.461Z,3.77
2018-09-17T15:21:28.842Z,3.80
2018-09-17T15:23:56.148Z,3.17
2018-09-17T15:26:23.884Z,3.53
2018-09-17T15:28:51.272Z,3.50
2018-09-17T15:31:18.920Z,3.37
2018-09-17T15:33:46.298Z,3.00
2018-09-17T15:36:13.787Z,3.40
2018-09-17T15:38:41.003Z,3.27
2018-09-17T15:41:09.760Z,4.27
2018-09-17T15:43:36.963Z,3.10
2018-09-17T15:46:04.321Z,3.37
2018-09-17T15:48:31.579Z,2.83
2018-09-17T15:50:58.825Z,2.57
2018-09-17T15:53:26.004Z,2.80
2018-09-17T15:55:53.581Z,2.70
2018-09-17T15:58:20.878Z,3.40
2018-09-17T16:00:48.555Z,3.40
2018-09-17T16:03:15.780Z,4.00
2018-09-17T16:05:43.134Z,2.90
2018-09-17T16:08:10.326Z,3.20
2018-09-17T16:10:37.613Z,3.30
2018-09-17T16:13:04.940Z,3.40
2018-09-17T16:15:32.349Z,3.13
2018-09-17T16:17:59.895Z,2.80
2018-09-17T16:20:27.159Z,2.67
2018-09-17T16:22:54.381Z,3.43
2018-09-17T16:25:21.620Z,3.07
2018-09-17T16:27:48.932Z,3.13
2018-09-17T16:30:16.213Z,3.00
2018-09-17T16:32:43.434Z,3.60
2018-09-17T16:35:10.836Z,2.63
2018-09-17T16:37:38.434Z,3.17
2018-09-17T16:40:06.344Z,3.80
2018-09-17T16:42:33.599Z,2.93
2018-09-17T16:45:01.622Z,3.50
2018-09-17T16:47:28.956Z,4.10
2018-09-17T16:49:56.210Z,4.13
2018-09-17T16:52:23.571Z,3.90
2018-09-17T16:54:51.872Z,3.87
2018-09-17T16:57:19.128Z,4.10
2018-09-17T16:59:47.026Z,4.10
2018-09-17T17:02:14.840Z,4.50
2018-09-17T17:04:42.140Z,4.30
2018-09-17T17:07:09.668Z,4.50
2018-09-17T17:09:37.198Z,4.77
2018-09-17T17:12:04.619Z,4.70
2018-09-17T17:14:31.802Z,5.50
2018-09-17T17:16:59.072Z,4.67
2018-09-17T17:19:26.442Z,4.57
2018-09-17T17:21:53.865Z,4.27
2018-09-17T17:24:21.211Z,4.53
2018-09-17T17:26:48.244Z,4.17
2018-09-17T17:29:15.525Z,4.10
2018-09-17T17:31:42.739Z,4.70
2018-09-17T17:34:10.051Z,4.47
2018-09-17T17:36:37.350Z,3.80
2018-09-17T17:39:06.679Z,3.90
2018-09-17T17:41:34.031Z,4.00
2018-09-17T17:44:01.284Z,5.23
2018-09-17T17:46:28.582Z,4.33
2018-09-17T17:48:56.070Z,5.23
2018-09-17T17:51:23.248Z,5.20
2018-09-17T17:53:50.549Z,5.43
2018-09-17T17:56:17.779Z,5.40
2018-09-17T17:58:45.072Z,5.93
2018-09-17T18:01:12.566Z,4.53
2018-09-17T18:03:39.780Z,5.63
2018-09-17T18:06:06.997Z,5.07
2018-09-17T18:08:34.246Z,4.90
2018-09-17T18:11:01.468Z,5.40
2018-09-17T18:13:28.793Z,5.13
2018-09-17T18:15:56.013Z,5.33
2018-09-17T18:18:23.296Z,5.73
2018-09-17T18:20:50.646Z,6.33
2018-09-17T18:23:18.037Z,6.53
2018-09-17T18:25:45.332Z,5.80
2018-09-17T18:28:12.557Z,5.80
2018-09-17T18:30:39.807Z,4.77
2018-09-17T18:33:07.128Z,5.43
2018-09-17T18:35:34.378Z,5.30
2018-09-17T18:38:01.981Z,4.80
2018-09-17T18:40:29.195Z,5.17
2018-09-17T18:42:56.485Z,5.67
2018-09-17T18:45:23.765Z,5.70
2018-09-17T18:47:51.154Z,5.30
2018-09-17T18:50:18.460Z,5.40
2018-09-17T18:52:45.710Z,6.83
2018-09-17T18:55:12.989Z,5.90
2018-09-17T18:57:40.232Z,5.87
2018-09-17T19:00:08.065Z,5.80
2018-09-17T19:02:35.312Z,6.10
2018-09-17T19:05:02.618Z,6.50
2018-09-17T19:07:29.898Z,5.80
2018-09-17T19:09:57.299Z,5.50
2018-09-17T19:12:24.801Z,5.77
2018-09-17T19:14:57.268Z,5.87
2018-09-17T19:17:30.034Z,5.47
2018-09-17T19:19:57.511Z,4.67
2018-09-17T19:22:30.089Z,4.63
2018-09-17T19:24:57.248Z,4.47
2018-09-17T19:27:30.144Z,6.00
2018-09-17T19:29:58.816Z,6.20
2018-09-17T19:32:25.891Z,6.03
2018-09-17T19:34:53.336Z,6.57
2018-09-17T19:37:26.132Z,5.90
2018-09-17T19:39:58.863Z,5.90
2018-09-17T19:42:26.257Z,6.73
2018-09-17T19:45:00.425Z,6.63
2018-09-17T19:47:27.859Z,6.90
2018-09-17T19:49:55.071Z,5.90
2018-09-17T19:52:23.629Z,5.30
2018-09-17T19:54:51.192Z,6.00
2018-09-17T19:57:23.906Z,6.23
2018-09-17T19:59:54.166Z,5.83
2018-09-17T20:02:21.541Z,6.40
2018-09-17T20:04:54.370Z,6.13
2018-09-17T20:07:22.128Z,6.57
2018-09-17T20:09:50.534Z,5.57
2018-09-17T20:12:18.174Z,6.83
2018-09-17T20:14:45.927Z,5.80
2018-09-17T20:17:13.243Z,6.57
2018-09-17T20:19:40.503Z,6.60
2018-09-17T20:22:08.619Z,6.40
2018-09-17T20:24:36.117Z,6.37
2018-09-17T20:27:03.481Z,6.57
2018-09-17T20:29:30.948Z,5.83
2018-09-17T20:31:58.834Z,6.63
2018-09-17T20:34:26.299Z,5.73
2018-09-17T20:36:54.798Z,5.57
2018-09-17T20:39:22.171Z,6.57
2018-09-17T20:41:49.514Z,6.10
2018-09-17T20:44:16.749Z,6.10
2018-09-17T20:46:44.094Z,5.80
2018-09-17T20:49:11.829Z,6.10
2018-09-17T20:51:40.493Z,5.60
2018-09-17T20:54:08.030Z,6.23
2018-09-17T20:56:35.367Z,5.57
2018-09-17T20:59:02.759Z,5.57
2018-09-17T21:01:32.064Z,5.40
2018-09-17T21:04:00.253Z,6.10
2018-09-17T21:06:29.432Z,5.77
2018-09-17T21:08:56.935Z,5.73
2018-09-17T21:11:24.231Z,6.70
2018-09-17T21:13:58.492Z,5.60
2018-09-17T21:16:29.294Z,5.67
2018-09-17T21:19:01.303Z,5.07
2018-09-17T21:21:31.684Z,5.07
2018-09-17T21:24:03.086Z,4.70
2018-09-17T21:26:33.768Z,5.13
2018-09-17T21:29:07.942Z,5.57
2018-09-17T21:31:42.225Z,5.20
2018-09-17T21:34:11.859Z,5.50
2018-09-17T21:36:43.028Z,4.63
2018-09-17T21:39:16.032Z,4.97
2018-09-17T21:41:45.891Z,5.50
2018-09-17T21:44:18.416Z,5.33
2018-09-17T21:46:50.789Z,5.20
2018-09-17T21:49:18.992Z,5.50
2018-09-17T21:51:51.097Z,5.47
2018-09-17T21:54:25.088Z,4.93
2018-09-17T21:56:52.394Z,4.97
2018-09-17T21:59:19.606Z,5.90
2018-09-17T22:01:47.041Z,6.50
2018-09-17T22:04:14.375Z,6.10
2018-09-17T22:06:41.571Z,6.13
2018-09-17T22:09:08.803Z,5.57
2018-09-17T22:11:36.019Z,6.30
2018-09-17T22:14:03.703Z,5.23
2018-09-17T22:16:31.282Z,5.50
2018-09-17T22:18:58.507Z,5.60
2018-09-17T22:21:25.694Z,5.83
2018-09-17T22:23:53.026Z,6.00
2018-09-17T22:26:20.234Z,5.87
2018-09-17T22:28:47.449Z,6.00
2018-09-17T22:31:14.645Z,6.50
2018-09-17T22:33:41.887Z,6.37
2018-09-17T22:36:09.126Z,5.83
2018-09-17T22:38:36.512Z,6.50
2018-09-17T22:41:03.887Z,5.53
2018-09-17T22:43:31.095Z,6.30
2018-09-17T22:45:58.502Z,5.50
2018-09-17T22:48:25.854Z,5.93
2018-09-17T22:50:53.120Z,5.77
2018-09-17T22:53:20.366Z,5.60
2018-09-17T22:55:47.718Z,5.67
2018-09-17T22:58:14.968Z,6.40
2018-09-17T23:00:42.334Z,6.10
2018-09-17T23:03:09.527Z,5.67
2018-09-17T23:05:36.961Z,5.60
2018-09-17T23:08:04.250Z,6.53
2018-09-17T23:10:31.547Z,6.23
2018-09-17T23:12:58.754Z,5.90
2018-09-17T23:15:26.043Z,5.50
2018-09-17T23:17:53.309Z,6.30
2018-09-17T23:20:20.498Z,5.83
2018-09-17T23:22:47.670Z,5.60
2018-09-17T23:25:15.023Z,5.50
2018-09-17T23:27:42.168Z,5.40
2018-09-17T23:30:09.404Z,6.30
2018-09-17T23:32:36.807Z,5.40
2018-09-17T23:35:04.058Z,5.63
2018-09-17T23:37:31.414Z,6.40
2018-09-17T23:39:59.332Z,5.07
2018-09-17T23:42:26.585Z,5.83
2018-09-17T23:44:53.836Z,5.50
2018-09-17T23:47:21.015Z,5.10
2018-09-17T23:49:48.204Z,5.50
2018-09-17T23:52:15.355Z,5.40
2018-09-17T23:54:42.590Z,6.10
2018-09-17T23:57:09.807Z,5.70
2018-09-17T23:59:37.017Z,5.50
